Time;durP1;ratioP1;P1;durP2;ratioP2;P2;SDS_P1;SDS_P2;PMS_P1;PMS_P2;Temp;Humidity;BMP_temperature;BMP_pressure;BME280_temperature;BME280_humidity;BME280_pressure;Samples;Min_cycle;Max_cycle;Signal;HPM_P1;HPM_P2
2022/10/28 00:00:14;;;;;;;16.37;9.57;;;;;;;;;;2106632;28;20044;-54
2022/10/28 00:01:16;;;;;;;15.88;8.02;;;;;;;;;;2105641;28;20051;-53
2022/10/28 00:02:17;;;;;;;17.23;8.65;;;;;;;;;;2106565;28;20051;-54
2022/10/28 00:03:18;;;;;;;16.85;8.93;;;;;;;;;;2106515;28;20044;-54
2022/10/28 00:04:19;;;;;;;13.45;7.88;;;;;;;;;;2106626;28;20055;-54
2022/10/28 00:05:20;;;;;;;14.02;8.30;;;;;;;;;;2106735;28;20059;-53
2022/10/28 00:06:23;;;;;;;18.10;9.05;;;;;;;;;;2106410;28;20052;-53
2022/10/28 00:07:23;;;;;;;14.48;8.85;;;;;;;;;;2106548;28;20048;-54
2022/10/28 00:08:26;;;;;;;11.67;7.53;;;;;;;;;;2106287;28;20040;-54
2022/10/28 00:09:28;;;;;;;15.15;8.95;;;;;;;;;;2106429;28;20044;-54
2022/10/28 00:10:28;;;;;;;15.25;9.25;;;;;;;;;;2106540;28;20051;-54
2022/10/28 00:11:30;;;;;;;17.13;8.30;;;;;;;;;;2106598;28;20044;-54
2022/10/28 00:12:33;;;;;;;17.67;8.82;;;;;;;;;;2106454;28;20097;-54
2022/10/28 00:13:35;;;;;;;13.90;7.68;;;;;;;;;;2106313;28;20483;-53
2022/10/28 00:14:36;;;;;;;15.73;8.82;;;;;;;;;;2106431;28;20377;-54
2022/10/28 00:15:37;;;;;;;16.20;8.20;;;;;;;;;;2106551;28;20055;-54
2022/10/28 00:16:56;;;;;;;16.70;8.18;;;;;;;;;;2106447;28;20130;-54
2022/10/28 00:17:57;;;;;;;16.77;7.90;;;;;;;;;;2106487;28;20483;-53
2022/10/28 00:18:58;;;;;;;14.65;8.30;;;;;;;;;;2106419;28;20052;-54
2022/10/28 00:19:59;;;;;;;15.05;8.43;;;;;;;;;;2106531;28;20040;-53
2022/10/28 00:21:01;;;;;;;18.15;8.57;;;;;;;;;;2106503;28;20101;-54
2022/10/28 00:22:02;;;;;;;18.20;8.23;;;;;;;;;;2106304;28;20051;-54
2022/10/28 00:23:03;;;;;;;15.23;8.10;;;;;;;;;;2106235;28;20492;-54
2022/10/28 00:24:05;;;;;;;14.17;7.63;;;;;;;;;;2106343;28;20105;-54
2022/10/28 00:25:06;;;;;;;13.52;7.93;;;;;;;;;;2106492;28;20056;-53
2022/10/28 00:26:08;;;;;;;14.68;8.55;;;;;;;;;;2106313;28;20048;-54
2022/10/28 00:27:09;;;;;;;11.25;7.43;;;;;;;;;;2106469;28;20048;-53
2022/10/28 00:28:10;;;;;;;13.20;7.60;;;;;;;;;;2106155;28;20476;-54
2022/10/28 00:29:12;;;;;;;15.68;8.00;;;;;;;;;;2106478;28;20047;-54
2022/10/28 00:30:13;;;;;;;12.25;7.68;;;;;;;;;;2106269;28;20492;-54
2022/10/28 00:31:15;;;;;;;15.75;7.60;;;;;;;;;;2106342;28;20051;-54
2022/10/28 00:32:16;;;;;;;16.33;7.97;;;;;;;;;;2106571;28;20048;-55
2022/10/28 00:33:17;;;;;;;16.55;8.35;;;;;;;;;;2106210;28;20055;-54
2022/10/28 00:34:20;;;;;;;10.75;7.43;;;;;;;;;;2106307;28;20499;-53
2022/10/28 00:35:22;;;;;;;15.00;8.38;;;;;;;;;;2106267;28;20047;-53
2022/10/28 00:36:22;;;;;;;;;;;;;;;;;;2106778;28;20048;-54
2022/10/28 00:37:23;;;;;;;11.35;7.80;;;;;;;;;;2106211;28;20016;-54
2022/10/28 00:38:24;;;;;;;15.87;8.77;;;;;;;;;;2106352;28;20549;-54
2022/10/28 00:39:26;;;;;;;15.77;8.40;;;;;;;;;;2106255;28;20137;-54
2022/10/28 00:40:27;;;;;;;;;;;;;;;;;;2110853;28;20040;-54
2022/10/28 00:41:29;;;;;;;15.77;8.43;;;;;;;;;;2114745;28;19924;-52
2022/10/28 00:42:30;;;;;;;16.40;8.32;;;;;;;;;;2114680;28;20039;-54
2022/10/28 00:43:35;;;;;;;17.30;7.77;;;;;;;;;;2114736;28;20472;-54
2022/10/28 00:44:51;;;;;;;14.93;8.02;;;;;;;;;;2114627;28;20044;-54
2022/10/28 00:45:53;;;;;;;16.15;8.43;;;;;;;;;;2111625;28;20389;-53
2022/10/28 00:46:53;;;;;;;16.42;8.23;;;;;;;;;;2114604;28;20055;-54
2022/10/28 00:47:56;;;;;;;18.98;8.32;;;;;;;;;;2110488;28;20059;-53
2022/10/28 00:49:00;;;;;;;13.40;8.98;;;;;;;;;;2106189;28;20397;-54
2022/10/28 00:50:06;;;;;;;17.67;8.80;;;;;;;;;;2106264;28;20043;-54
2022/10/28 00:51:08;;;;;;;14.57;8.18;;;;;;;;;;2106167;28;20044;-53
2022/10/28 00:52:12;;;;;;;15.45;8.25;;;;;;;;;;2106212;28;20062;-54
2022/10/28 00:53:14;;;;;;;18.02;8.73;;;;;;;;;;2106090;28;20047;-53
2022/10/28 00:54:15;;;;;;;;;;;;;;;;;;2106561;28;20048;-53
2022/10/28 00:55:17;;;;;;;16.48;8.20;;;;;;;;;;2106117;28;19920;-53
2022/10/28 00:56:19;;;;;;;16.23;8.95;;;;;;;;;;2106258;28;20412;-54
2022/10/28 00:57:24;;;;;;;15.13;8.63;;;;;;;;;;2106187;28;20048;-53
2022/10/28 00:58:26;;;;;;;15.98;8.15;;;;;;;;;;2106022;28;20127;-53
2022/10/28 00:59:28;;;;;;;14.20;7.53;;;;;;;;;;2106164;28;20585;-53
2022/10/28 01:00:29;;;;;;;;;;;;;;;;;;2106497;28;20048;-54
2022/10/28 01:01:29;;;;;;;16.90;8.45;;;;;;;;;;2106282;28;19926;-53
2022/10/28 01:02:32;;;;;;;16.53;8.60;;;;;;;;;;2106094;28;20101;-54
2022/10/28 01:03:33;;;;;;;16.88;8.63;;;;;;;;;;2106075;28;20055;-53
2022/10/28 01:04:34;;;;;;;17.40;9.32;;;;;;;;;;2106117;28;20047;-54
2022/10/28 01:05:36;;;;;;;15.90;9.50;;;;;;;;;;2106108;28;20139;-53
2022/10/28 01:06:37;;;;;;;16.42;9.18;;;;;;;;;;2106242;28;20040;-53
2022/10/28 01:07:38;;;;;;;15.60;8.20;;;;;;;;;;2106248;28;20047;-53
2022/10/28 01:08:39;;;;;;;15.88;8.60;;;;;;;;;;2105924;28;20044;-53
2022/10/28 01:09:40;;;;;;;17.90;9.60;;;;;;;;;;2106090;28;20044;-54
2022/10/28 01:10:52;;;;;;;23.27;8.68;;;;;;;;;;2106111;28;20412;-53
2022/10/28 01:11:55;;;;;;;14.35;8.35;;;;;;;;;;2106248;28;20043;-53
2022/10/28 01:13:01;;;;;;;19.30;9.07;;;;;;;;;;2105634;28;20120;-53
2022/10/28 01:14:15;;;;;;;18.10;9.20;;;;;;;;;;2106090;28;20093;-54
2022/10/28 01:15:21;;;;;;;16.77;9.05;;;;;;;;;;2105982;28;20519;-53
2022/10/28 01:16:25;;;;;;;15.75;9.10;;;;;;;;;;2106215;28;20044;-53
2022/10/28 01:17:41;;;;;;;18.05;9.45;;;;;;;;;;2105969;28;20485;-53
2022/10/28 01:18:45;;;;;;;19.30;8.35;;;;;;;;;;2105969;28;20408;-53
2022/10/28 01:20:05;;;;;;;18.20;10.50;;;;;;;;;;2106119;28;20097;-54
2022/10/28 01:21:25;;;;;;;19.02;9.93;;;;;;;;;;2105977;28;20477;-53
2022/10/28 01:22:28;;;;;;;20.05;10.27;;;;;;;;;;2106004;28;20396;-53
2022/10/28 01:23:39;;;;;;;18.98;10.80;;;;;;;;;;2105936;28;20056;-53
2022/10/28 01:24:53;;;;;;;24.08;9.57;;;;;;;;;;2106106;28;20044;-53
2022/10/28 01:26:07;;;;;;;18.67;10.38;;;;;;;;;;2106084;28;20044;-53
2022/10/28 01:27:28;;;;;;;21.52;9.85;;;;;;;;;;2106155;28;20468;-54
2022/10/28 01:28:41;;;;;;;18.85;9.40;;;;;;;;;;2097496;28;20055;-53
2022/10/28 01:29:52;;;;;;;15.85;9.25;;;;;;;;;;2106129;28;20051;-53
2022/10/28 01:31:03;;;;;;;20.95;9.90;;;;;;;;;;2105918;28;20051;-54
2022/10/28 01:32:06;;;;;;;20.27;10.65;;;;;;;;;;2106003;28;20048;-53
2022/10/28 01:33:09;;;;;;;20.02;9.77;;;;;;;;;;2105885;28;20052;-54
2022/10/28 01:34:16;;;;;;;20.92;10.07;;;;;;;;;;2105896;28;20553;-54
2022/10/28 01:35:21;;;;;;;23.17;10.40;;;;;;;;;;2106039;28;20052;-54
2022/10/28 01:36:26;;;;;;;24.42;10.88;;;;;;;;;;2106963;28;20072;-54
2022/10/28 01:37:31;;;;;;;16.60;10.05;;;;;;;;;;2114415;28;20052;-54
2022/10/28 01:38:34;;;;;;;21.00;11.10;;;;;;;;;;2114268;28;20076;-54
2022/10/28 01:39:40;;;;;;;17.60;9.75;;;;;;;;;;2114389;28;20050;-54
2022/10/28 01:40:44;;;;;;;18.05;9.35;;;;;;;;;;2114295;28;20044;-54
2022/10/28 01:41:49;;;;;;;17.67;10.48;;;;;;;;;;2114391;28;20097;-54
2022/10/28 01:42:52;;;;;;;16.30;9.82;;;;;;;;;;2114289;28;20051;-54
2022/10/28 01:43:56;;;;;;;20.52;11.25;;;;;;;;;;2114459;28;20047;-54
2022/10/28 01:45:01;;;;;;;18.90;10.15;;;;;;;;;;2114342;28;20047;-54
2022/10/28 01:46:05;;;;;;;19.17;11.13;;;;;;;;;;2114191;28;20568;-54
2022/10/28 01:47:09;;;;;;;21.25;10.82;;;;;;;;;;2114298;28;20089;-54
2022/10/28 01:48:12;;;;;;;20.75;11.25;;;;;;;;;;2107951;28;20051;-54
2022/10/28 01:49:17;;;;;;;19.90;10.77;;;;;;;;;;2105844;28;20468;-54
2022/10/28 01:50:21;;;;;;;19.52;11.05;;;;;;;;;;2105956;28;20113;-54
2022/10/28 01:51:24;;;;;;;23.17;12.18;;;;;;;;;;2105815;28;20044;-54
2022/10/28 01:52:27;;;;;;;22.58;12.68;;;;;;;;;;2105938;28;20040;-54
2022/10/28 01:53:30;;;;;;;23.60;12.48;;;;;;;;;;2105827;28;20040;-54
2022/10/28 01:54:33;;;;;;;25.20;12.75;;;;;;;;;;2105869;28;20044;-53
2022/10/28 01:55:35;;;;;;;21.27;11.77;;;;;;;;;;2105837;28;20052;-54
2022/10/28 01:56:39;;;;;;;24.88;12.63;;;;;;;;;;2105779;28;20039;-54
2022/10/28 01:57:40;;;;;;;23.20;12.98;;;;;;;;;;2105801;28;20047;-53
2022/10/28 01:58:42;;;;;;;25.58;12.60;;;;;;;;;;2105778;28;20067;-54
2022/10/28 01:59:44;;;;;;;23.48;13.10;;;;;;;;;;2105927;28;20193;-54
2022/10/28 02:00:45;;;;;;;24.85;12.70;;;;;;;;;;2105717;28;20480;-54
2022/10/28 02:01:47;;;;;;;23.42;12.45;;;;;;;;;;2105760;28;20067;-53
2022/10/28 02:02:48;;;;;;;22.88;11.65;;;;;;;;;;2105765;28;20300;-53
2022/10/28 02:03:49;;;;;;;22.58;11.65;;;;;;;;;;2105705;28;20485;-54
2022/10/28 02:04:51;;;;;;;19.77;11.88;;;;;;;;;;2105836;28;20185;-54
2022/10/28 02:05:53;;;;;;;22.38;12.55;;;;;;;;;;2105841;28;20048;-53
2022/10/28 02:06:56;;;;;;;27.10;12.00;;;;;;;;;;2105859;28;20048;-54
2022/10/28 02:07:58;;;;;;;24.88;12.77;;;;;;;;;;2105846;28;20044;-53
2022/10/28 02:09:06;;;;;;;21.52;12.10;;;;;;;;;;2110797;28;20039;-53
2022/10/28 02:10:13;;;;;;;20.80;11.98;;;;;;;;;;2114114;28;20449;-53
2022/10/28 02:11:31;;;;;;;22.58;12.40;;;;;;;;;;2114157;28;20468;-52
2022/10/28 02:12:34;;;;;;;24.48;11.65;;;;;;;;;;2114111;28;20047;-54
2022/10/28 02:13:40;;;;;;;21.73;11.55;;;;;;;;;;2114177;28;20048;-53
2022/10/28 02:14:48;;;;;;;22.83;11.85;;;;;;;;;;2114164;28;20523;-53
2022/10/28 02:15:52;;;;;;;18.92;11.30;;;;;;;;;;2114479;28;20051;-45
2022/10/28 02:16:57;;;;;;;22.15;11.15;;;;;;;;;;2114118;28;20104;-44
2022/10/28 02:18:07;;;;;;;19.30;10.27;;;;;;;;;;2114167;28;20048;-45
2022/10/28 02:19:13;;;;;;;24.33;11.60;;;;;;;;;;2114094;28;20040;-44
2022/10/28 02:20:17;;;;;;;25.90;11.82;;;;;;;;;;2114242;28;20040;-45
2022/10/28 02:21:20;;;;;;;19.58;10.27;;;;;;;;;;2114079;28;20051;-44
2022/10/28 02:22:23;;;;;;;21.42;11.10;;;;;;;;;;2114254;28;20101;-44
2022/10/28 02:23:27;;;;;;;18.95;9.63;;;;;;;;;;2113932;28;20396;-44
2022/10/28 02:24:35;;;;;;;20.52;10.07;;;;;;;;;;2114356;28;20051;-45
2022/10/28 02:25:40;;;;;;;19.17;10.75;;;;;;;;;;2115630;28;20047;-44
2022/10/28 02:26:42;;;;;;;20.17;10.70;;;;;;;;;;2115518;28;20429;-44
2022/10/28 02:27:46;;;;;;;21.65;11.10;;;;;;;;;;2115449;28;20044;-44
2022/10/28 02:28:49;;;;;;;22.25;10.60;;;;;;;;;;2115618;28;20043;-44
2022/10/28 02:29:53;;;;;;;20.10;10.93;;;;;;;;;;2115452;28;20054;-44
2022/10/28 02:30:59;;;;;;;19.40;10.25;;;;;;;;;;2115490;28;20078;-44
2022/10/28 02:32:02;;;;;;;18.27;10.27;;;;;;;;;;2115656;28;20050;-44
2022/10/28 02:33:05;;;;;;;18.95;10.35;;;;;;;;;;2115244;28;20044;-44
2022/10/28 02:34:09;;;;;;;18.77;9.95;;;;;;;;;;2115540;28;20043;-45
2022/10/28 02:35:12;;;;;;;21.02;9.73;;;;;;;;;;2115580;28;20191;-44
2022/10/28 02:36:15;;;;;;;24.52;9.45;;;;;;;;;;2115431;28;20088;-45
2022/10/28 02:37:19;;;;;;;24.63;10.07;;;;;;;;;;2115620;28;20043;-45
2022/10/28 02:38:24;;;;;;;17.30;10.70;;;;;;;;;;2115532;28;20048;-45
2022/10/28 02:39:26;;;;;;;22.42;11.68;;;;;;;;;;2115857;28;20044;-54
2022/10/28 02:40:29;;;;;;;19.77;10.35;;;;;;;;;;2115447;28;20048;-54
2022/10/28 02:41:33;;;;;;;23.92;11.93;;;;;;;;;;2115415;28;20047;-53
2022/10/28 02:42:37;;;;;;;23.70;11.93;;;;;;;;;;2115434;28;20047;-54
2022/10/28 02:43:39;;;;;;;20.48;11.60;;;;;;;;;;2115342;28;20160;-53
2022/10/28 02:44:40;;;;;;;;;;;;;;;;;;2116021;28;20067;-53
2022/10/28 02:45:42;;;;;;;22.35;11.43;;;;;;;;;;2115484;28;20460;-54
2022/10/28 02:46:43;;;;;;;;;;;;;;;;;;2115829;28;20051;-54
2022/10/28 02:47:46;;;;;;;21.17;11.68;;;;;;;;;;2112693;28;19927;-53
2022/10/28 02:48:49;;;;;;;23.30;11.98;;;;;;;;;;2106889;28;20446;-54
2022/10/28 02:49:54;;;;;;;24.95;12.50;;;;;;;;;;2107012;28;20048;-53
2022/10/28 02:50:58;;;;;;;24.60;11.48;;;;;;;;;;2107115;28;20056;-53
2022/10/28 02:52:01;;;;;;;20.00;11.20;;;;;;;;;;2106882;28;20390;-53
2022/10/28 02:53:04;;;;;;;21.48;12.15;;;;;;;;;;2106965;28;20108;-53
2022/10/28 02:54:08;;;;;;;23.98;11.45;;;;;;;;;;2106961;28;20409;-53
2022/10/28 02:55:09;;;;;;;19.50;10.85;;;;;;;;;;2107036;28;20048;-54
2022/10/28 02:56:12;;;;;;;17.70;10.48;;;;;;;;;;2107069;28;20106;-54
2022/10/28 02:57:15;;;;;;;17.45;10.65;;;;;;;;;;2106928;28;20040;-54
2022/10/28 02:58:16;;;;;;;20.80;11.55;;;;;;;;;;2106865;28;20511;-54
2022/10/28 02:59:17;;;;;;;21.73;10.33;;;;;;;;;;2106981;28;20044;-54
2022/10/28 03:00:19;;;;;;;25.70;10.95;;;;;;;;;;2107100;28;20207;-54
2022/10/28 03:01:21;;;;;;;21.48;11.65;;;;;;;;;;2106826;28;20405;-53
2022/10/28 03:02:22;;;;;;;21.73;11.20;;;;;;;;;;2106896;28;20441;-53
2022/10/28 03:03:24;;;;;;;18.88;11.73;;;;;;;;;;2106825;28;20044;-53
2022/10/28 03:04:25;;;;;;;;;;;;;;;;;;2107358;28;20040;-54
2022/10/28 03:05:26;;;;;;;17.48;10.95;;;;;;;;;;2106834;28;19969;-53
2022/10/28 03:06:27;;;;;;;18.95;12.18;;;;;;;;;;2106871;28;20044;-53
2022/10/28 03:07:28;;;;;;;21.77;11.00;;;;;;;;;;2106907;28;20090;-54
2022/10/28 03:08:29;;;;;;;20.80;11.52;;;;;;;;;;2106683;28;20044;-54
2022/10/28 03:09:30;;;;;;;24.20;12.20;;;;;;;;;;2106938;28;20050;-54
2022/10/28 03:10:31;;;;;;;21.60;12.48;;;;;;;;;;2106859;28;20090;-54
2022/10/28 03:11:32;;;;;;;22.63;12.00;;;;;;;;;;2107007;28;20504;-54
2022/10/28 03:12:33;;;;;;;20.83;12.00;;;;;;;;;;2106726;28;20048;-53
2022/10/28 03:13:34;;;;;;;23.73;12.97;;;;;;;;;;2106791;28;20479;-53
2022/10/28 03:14:36;;;;;;;23.58;11.90;;;;;;;;;;2106872;28;20055;-53
2022/10/28 03:15:37;;;;;;;19.75;11.90;;;;;;;;;;2106800;28;20089;-52
2022/10/28 03:16:38;;;;;;;25.00;12.45;;;;;;;;;;2106820;28;20040;-54
2022/10/28 03:17:39;;;;;;;24.53;13.27;;;;;;;;;;2106749;28;20044;-53
2022/10/28 03:18:40;;;;;;;22.83;12.38;;;;;;;;;;2106905;28;20073;-53
2022/10/28 03:19:41;;;;;;;20.77;12.70;;;;;;;;;;2106791;28;20052;-53
2022/10/28 03:20:42;;;;;;;20.38;12.77;;;;;;;;;;2106874;28;20101;-53
2022/10/28 03:21:43;;;;;;;19.90;11.60;;;;;;;;;;2106786;28;20132;-53
2022/10/28 03:22:45;;;;;;;24.42;12.43;;;;;;;;;;2106813;28;20055;-53
2022/10/28 03:23:46;;;;;;;21.77;11.93;;;;;;;;;;2106806;28;20052;-53
2022/10/28 03:24:47;;;;;;;20.77;11.60;;;;;;;;;;2106800;28;20489;-53
2022/10/28 03:25:48;;;;;;;22.30;12.00;;;;;;;;;;2106740;28;20067;-53
2022/10/28 03:26:49;;;;;;;16.00;11.23;;;;;;;;;;2106851;28;20052;-53
2022/10/28 03:27:50;;;;;;;19.52;10.65;;;;;;;;;;2106662;28;20134;-53
2022/10/28 03:28:51;;;;;;;17.13;11.40;;;;;;;;;;2107637;28;20063;-54
2022/10/28 03:29:52;;;;;;;19.03;12.00;;;;;;;;;;2115283;28;20051;-54
2022/10/28 03:30:53;;;;;;;20.92;11.55;;;;;;;;;;2115097;28;20048;-54
2022/10/28 03:31:54;;;;;;;28.85;15.02;;;;;;;;;;2115280;28;20500;-53
2022/10/28 03:32:55;;;;;;;23.48;14.13;;;;;;;;;;2115137;28;20052;-53
2022/10/28 03:33:57;;;;;;;22.52;12.05;;;;;;;;;;2115104;28;20043;-53
2022/10/28 03:34:58;;;;;;;19.58;13.10;;;;;;;;;;2115192;28;20055;-54
2022/10/28 03:35:59;;;;;;;21.53;12.80;;;;;;;;;;2115156;28;20043;-53
2022/10/28 03:37:01;;;;;;;24.13;13.70;;;;;;;;;;2115177;28;20058;-53
2022/10/28 03:38:01;;;;;;;19.63;11.93;;;;;;;;;;2115163;28;20044;-53
2022/10/28 03:39:03;;;;;;;19.00;11.90;;;;;;;;;;2115048;28;20058;-54
2022/10/28 03:40:06;;;;;;;26.98;12.23;;;;;;;;;;2115050;28;20408;-54
2022/10/28 03:41:07;;;;;;;22.10;12.23;;;;;;;;;;2115090;28;20092;-53
2022/10/28 03:42:08;;;;;;;22.08;11.93;;;;;;;;;;2115043;28;20047;-53
2022/10/28 03:43:09;;;;;;;21.42;12.40;;;;;;;;;;2114959;28;20116;-53
2022/10/28 03:44:10;;;;;;;19.08;11.40;;;;;;;;;;2115108;28;20124;-53
2022/10/28 03:45:12;;;;;;;19.17;12.45;;;;;;;;;;2115034;28;20566;-53
2022/10/28 03:46:12;;;;;;;20.30;12.45;;;;;;;;;;2114996;28;20047;-54
2022/10/28 03:47:14;;;;;;;20.97;12.23;;;;;;;;;;2115081;28;20138;-53
2022/10/28 03:48:14;;;;;;;19.00;11.95;;;;;;;;;;2108004;28;20036;-54
2022/10/28 03:49:16;;;;;;;20.30;12.30;;;;;;;;;;2106784;28;20075;-53
2022/10/28 03:50:17;;;;;;;20.23;11.57;;;;;;;;;;2106601;28;20397;-53
2022/10/28 03:51:18;;;;;;;18.50;11.67;;;;;;;;;;2106532;28;20048;-53
2022/10/28 03:52:19;;;;;;;18.17;11.27;;;;;;;;;;2106669;28;20488;-53
2022/10/28 03:53:20;;;;;;;18.85;11.60;;;;;;;;;;2106458;28;20048;-53
2022/10/28 03:54:21;;;;;;;21.77;12.05;;;;;;;;;;2106527;28;20396;-53
2022/10/28 03:55:24;;;;;;;19.27;11.43;;;;;;;;;;2106599;28;20048;-53
2022/10/28 03:56:25;;;;;;;24.23;13.00;;;;;;;;;;2106595;28;20105;-53
2022/10/28 03:57:29;;;;;;;18.13;11.63;;;;;;;;;;2106667;28;20048;-53
2022/10/28 03:58:30;;;;;;;18.00;10.80;;;;;;;;;;2106400;28;20047;-53
2022/10/28 03:59:31;;;;;;;18.10;11.00;;;;;;;;;;2106436;28;20055;-53
2022/10/28 04:00:32;;;;;;;18.60;11.70;;;;;;;;;;2106569;28;20052;-53
2022/10/28 04:01:33;;;;;;;18.50;11.30;;;;;;;;;;2106666;28;20044;-53
2022/10/28 04:02:34;;;;;;;20.63;10.82;;;;;;;;;;2106507;28;20040;-53
2022/10/28 04:03:35;;;;;;;23.55;12.10;;;;;;;;;;2106429;28;20164;-53
2022/10/28 04:04:36;;;;;;;20.27;10.95;;;;;;;;;;2106504;28;20051;-53
2022/10/28 04:05:38;;;;;;;16.90;10.48;;;;;;;;;;2106500;28;20477;-54
2022/10/28 04:06:39;;;;;;;20.15;11.55;;;;;;;;;;2106381;28;20093;-54
2022/10/28 04:07:40;;;;;;;19.43;11.00;;;;;;;;;;2106403;28;20052;-53
2022/10/28 04:08:41;;;;;;;17.52;10.85;;;;;;;;;;2106446;28;20051;-54
2022/10/28 04:09:42;;;;;;;24.60;11.43;;;;;;;;;;2106597;28;20484;-53
2022/10/28 04:10:43;;;;;;;19.98;11.25;;;;;;;;;;2106361;28;20047;-53
2022/10/28 04:11:48;;;;;;;21.38;11.05;;;;;;;;;;2106425;28;20401;-54
2022/10/28 04:12:49;;;;;;;19.95;11.55;;;;;;;;;;2106452;28;20052;-53
2022/10/28 04:13:50;;;;;;;19.75;10.98;;;;;;;;;;2106445;28;20157;-53
2022/10/28 04:14:52;;;;;;;16.75;11.02;;;;;;;;;;2106651;28;20245;-53
2022/10/28 04:15:53;;;;;;;21.35;11.25;;;;;;;;;;2106423;28;20066;-54
2022/10/28 04:16:54;;;;;;;18.98;10.30;;;;;;;;;;2106396;28;20052;-54
2022/10/28 04:17:55;;;;;;;18.70;11.63;;;;;;;;;;2106443;28;20233;-54
2022/10/28 04:18:56;;;;;;;21.75;11.02;;;;;;;;;;2106362;28;20048;-54
2022/10/28 04:19:58;;;;;;;18.30;11.52;;;;;;;;;;2106412;28;20090;-54
2022/10/28 04:20:59;;;;;;;18.73;11.00;;;;;;;;;;2106398;28;20055;-54
2022/10/28 04:22:00;;;;;;;22.98;12.20;;;;;;;;;;2106345;28;20056;-54
2022/10/28 04:23:01;;;;;;;17.05;11.15;;;;;;;;;;2106391;28;20044;-54
2022/10/28 04:24:03;;;;;;;20.40;11.55;;;;;;;;;;2106338;28;20048;-54
2022/10/28 04:25:04;;;;;;;20.25;11.95;;;;;;;;;;2106919;28;20047;-54
2022/10/28 04:26:05;;;;;;;24.17;11.65;;;;;;;;;;2114914;28;20044;-54
2022/10/28 04:27:06;;;;;;;19.05;11.05;;;;;;;;;;2114737;28;20508;-54
2022/10/28 04:28:07;;;;;;;23.93;11.80;;;;;;;;;;2114531;28;20048;-54
2022/10/28 04:29:08;;;;;;;25.38;11.55;;;;;;;;;;2114745;28;20052;-54
2022/10/28 04:30:11;;;;;;;21.77;11.47;;;;;;;;;;2114918;28;20143;-54
2022/10/28 04:31:12;;;;;;;21.30;12.25;;;;;;;;;;2114594;28;20403;-54
2022/10/28 04:32:13;;;;;;;18.43;10.33;;;;;;;;;;2114858;28;20134;-55
2022/10/28 04:33:14;;;;;;;20.00;10.88;;;;;;;;;;2114736;28;20108;-54
2022/10/28 04:34:16;;;;;;;22.42;11.85;;;;;;;;;;2114843;28;20086;-54
2022/10/28 04:35:17;;;;;;;17.90;11.38;;;;;;;;;;2114691;28;20404;-53
2022/10/28 04:36:18;;;;;;;22.35;11.07;;;;;;;;;;2114740;28;20050;-54
2022/10/28 04:37:19;;;;;;;21.02;12.57;;;;;;;;;;2114828;28;20051;-54
2022/10/28 04:38:22;;;;;;;22.05;11.35;;;;;;;;;;2114551;28;20451;-54
2022/10/28 04:39:23;;;;;;;;;;;;;;;;;;2115210;28;20051;-54
2022/10/28 04:40:24;;;;;;;20.23;11.75;;;;;;;;;;2114707;28;19924;-54
2022/10/28 04:41:25;;;;;;;20.15;11.57;;;;;;;;;;2114660;28;20050;-54
2022/10/28 04:42:26;;;;;;;24.40;12.32;;;;;;;;;;2114702;28;20548;-54
2022/10/28 04:43:27;;;;;;;18.15;11.68;;;;;;;;;;2114703;28;20050;-54
2022/10/28 04:44:28;;;;;;;24.57;12.13;;;;;;;;;;2114796;28;20047;-53
2022/10/28 04:45:29;;;;;;;19.55;12.20;;;;;;;;;;2114756;28;20052;-54
2022/10/28 04:46:31;;;;;;;23.67;11.90;;;;;;;;;;2114747;28;20047;-53
2022/10/28 04:47:31;;;;;;;20.50;12.05;;;;;;;;;;2113053;28;20035;-53
2022/10/28 04:48:33;;;;;;;19.27;11.03;;;;;;;;;;2106207;28;20521;-54
2022/10/28 04:49:34;;;;;;;27.08;12.02;;;;;;;;;;2106193;28;20044;-54
2022/10/28 04:50:40;;;;;;;23.13;12.13;;;;;;;;;;2106277;28;20097;-54
2022/10/28 04:51:41;;;;;;;21.25;10.88;;;;;;;;;;2106098;28;20048;-54
2022/10/28 04:52:42;;;;;;;24.67;11.83;;;;;;;;;;2106219;28;20076;-53
2022/10/28 04:53:43;;;;;;;23.00;12.15;;;;;;;;;;2106182;28;20051;-54
2022/10/28 04:54:44;;;;;;;21.00;11.80;;;;;;;;;;2106197;28;20083;-54
2022/10/28 04:55:45;;;;;;;22.05;11.55;;;;;;;;;;2106192;28;20047;-54
2022/10/28 04:56:46;;;;;;;21.33;12.27;;;;;;;;;;2106326;28;20044;-53
2022/10/28 04:57:52;;;;;;;19.05;10.80;;;;;;;;;;2106195;28;20048;-54
2022/10/28 04:58:53;;;;;;;19.27;11.45;;;;;;;;;;2106130;28;20112;-54
2022/10/28 04:59:54;;;;;;;17.00;11.90;;;;;;;;;;2106233;28;20055;-54
2022/10/28 05:00:55;;;;;;;18.20;11.53;;;;;;;;;;2106132;28;20054;-54
2022/10/28 05:01:56;;;;;;;24.58;12.55;;;;;;;;;;2106238;28;20051;-54
2022/10/28 05:03:00;;;;;;;21.13;11.17;;;;;;;;;;2106061;28;20386;-54
2022/10/28 05:04:01;;;;;;;24.13;11.02;;;;;;;;;;2106231;28;20105;-54
2022/10/28 05:05:03;;;;;;;20.90;12.40;;;;;;;;;;2106253;28;20462;-54
2022/10/28 05:06:05;;;;;;;21.08;12.63;;;;;;;;;;2106078;28;20523;-54
2022/10/28 05:07:06;;;;;;;;;;;;;;;;;;2106633;28;20052;-53
2022/10/28 05:08:07;;;;;;;23.63;13.57;;;;;;;;;;2106160;28;19927;-54
2022/10/28 05:09:08;;;;;;;21.30;13.07;;;;;;;;;;2106020;28;20044;-54
2022/10/28 05:10:09;;;;;;;25.58;12.25;;;;;;;;;;2106001;28;20097;-54
2022/10/28 05:11:10;;;;;;;21.27;13.13;;;;;;;;;;2106228;28;20109;-53
2022/10/28 05:12:11;;;;;;;23.13;12.38;;;;;;;;;;2106059;28;20044;-53
2022/10/28 05:13:12;;;;;;;21.40;13.18;;;;;;;;;;2105976;28;20048;-56
2022/10/28 05:14:13;;;;;;;21.85;12.98;;;;;;;;;;2106132;28;20194;-54
2022/10/28 05:15:14;;;;;;;21.47;12.60;;;;;;;;;;2106193;28;20048;-53
2022/10/28 05:16:15;;;;;;;20.88;12.68;;;;;;;;;;2106048;28;20048;-54
2022/10/28 05:17:16;;;;;;;20.33;11.23;;;;;;;;;;2106154;28;20054;-54
2022/10/28 05:18:17;;;;;;;21.08;11.43;;;;;;;;;;2106014;28;20048;-54
2022/10/28 05:19:18;;;;;;;20.70;11.47;;;;;;;;;;2106014;28;20048;-54
2022/10/28 05:20:19;;;;;;;22.90;11.82;;;;;;;;;;2106163;28;20062;-53
2022/10/28 05:21:21;;;;;;;22.47;12.17;;;;;;;;;;2106883;28;20098;-53
2022/10/28 05:22:22;;;;;;;21.20;12.27;;;;;;;;;;2114410;28;20282;-54
2022/10/28 05:23:23;;;;;;;25.73;12.40;;;;;;;;;;2114398;28;20078;-54
2022/10/28 05:24:29;;;;;;;24.67;12.55;;;;;;;;;;2114494;28;20481;-54
2022/10/28 05:25:30;;;;;;;21.43;11.87;;;;;;;;;;2114700;28;20134;-54
2022/10/28 05:26:31;;;;;;;19.20;11.93;;;;;;;;;;2114416;28;20407;-54
2022/10/28 05:27:32;;;;;;;23.10;11.93;;;;;;;;;;2114394;28;20051;-54
2022/10/28 05:28:33;;;;;;;19.93;12.73;;;;;;;;;;2114405;28;20047;-44
2022/10/28 05:29:34;;;;;;;20.27;11.68;;;;;;;;;;2114552;28;20051;-44
2022/10/28 05:30:35;;;;;;;22.93;12.93;;;;;;;;;;2114462;28;20048;-44
2022/10/28 05:31:36;;;;;;;26.20;12.70;;;;;;;;;;2114516;28;20320;-44
2022/10/28 05:32:37;;;;;;;20.00;12.00;;;;;;;;;;2114378;28;20039;-44
2022/10/28 05:33:38;;;;;;;21.92;13.23;;;;;;;;;;2114610;28;20047;-44
2022/10/28 05:34:39;;;;;;;21.65;12.93;;;;;;;;;;2114372;28;20520;-44
2022/10/28 05:35:40;;;;;;;21.38;12.40;;;;;;;;;;2114585;28;20047;-44
2022/10/28 05:36:42;;;;;;;18.98;12.02;;;;;;;;;;2114430;28;20381;-44
2022/10/28 05:37:43;;;;;;;25.02;13.20;;;;;;;;;;2114371;28;20070;-44
2022/10/28 05:38:44;;;;;;;22.57;12.97;;;;;;;;;;2114269;28;20047;-43
2022/10/28 05:39:45;;;;;;;25.90;13.75;;;;;;;;;;2114475;28;20058;-43
2022/10/28 05:40:46;;;;;;;22.27;12.33;;;;;;;;;;2114275;28;20047;-44
2022/10/28 05:41:47;;;;;;;22.80;11.82;;;;;;;;;;2114245;28;20101;-44
2022/10/28 05:42:48;;;;;;;26.75;12.57;;;;;;;;;;2114321;28;20051;-44
2022/10/28 05:43:50;;;;;;;24.50;12.07;;;;;;;;;;2114264;28;20402;-44
2022/10/28 05:44:51;;;;;;;;;;;;;;;;;;2114878;28;20052;-44
2022/10/28 05:45:52;;;;;;;20.27;11.60;;;;;;;;;;2114196;28;20389;-44
2022/10/28 05:46:54;;;;;;;23.02;12.48;;;;;;;;;;2114369;28;20047;-43
2022/10/28 05:47:55;;;;;;;25.17;12.73;;;;;;;;;;2110271;28;20044;-44
2022/10/28 05:48:56;;;;;;;24.70;13.57;;;;;;;;;;2105751;28;20075;-44
2022/10/28 05:49:57;;;;;;;24.85;12.90;;;;;;;;;;2105867;28;20055;-44
2022/10/28 05:50:58;;;;;;;27.13;13.32;;;;;;;;;;2105995;28;20044;-44
2022/10/28 05:52:00;;;;;;;23.85;13.35;;;;;;;;;;2105958;28;20051;-44
2022/10/28 05:53:01;;;;;;;26.25;14.13;;;;;;;;;;2105884;28;20044;-44
2022/10/28 05:54:02;;;;;;;22.80;13.68;;;;;;;;;;2106039;28;20405;-54
2022/10/28 05:55:04;;;;;;;22.27;12.73;;;;;;;;;;2105803;28;20048;-54
2022/10/28 05:56:05;;;;;;;25.10;14.98;;;;;;;;;;2105898;28;20272;-54
2022/10/28 05:57:06;;;;;;;24.98;13.55;;;;;;;;;;2105828;28;20047;-54
2022/10/28 05:58:08;;;;;;;25.00;14.93;;;;;;;;;;2105748;28;20048;-54
2022/10/28 05:59:09;;;;;;;25.55;14.93;;;;;;;;;;2105780;28;20052;-53
2022/10/28 06:00:11;;;;;;;22.40;14.33;;;;;;;;;;2107174;28;20094;-54
2022/10/28 06:01:12;;;;;;;;;;;;;;;;;;2107735;28;20044;-54
2022/10/28 06:02:13;;;;;;;26.38;15.68;;;;;;;;;;2107394;28;19920;-54
2022/10/28 06:03:14;;;;;;;30.63;17.60;;;;;;;;;;2107133;28;20525;-54
2022/10/28 06:04:15;;;;;;;28.95;16.67;;;;;;;;;;2107375;28;20051;-54
2022/10/28 06:05:16;;;;;;;31.60;18.58;;;;;;;;;;2107313;28;20069;-54
2022/10/28 06:06:18;;;;;;;32.47;17.80;;;;;;;;;;2107199;28;20044;-54